Preview of NWS' New Version of Forecast
This preview is not operational and should not be used for support decisions.

Terminal Aerodrome Forecast (TAF)

Issued by National Weather Service (NWS)

                            
000
FTUS46 KMFR 221720
TAFRBG
TAF
KRBG 221720Z 2218/2318 36008KT P6SM BKN015
     FM222000 36011G18KT P6SM SKC
     FM230300 VRB03KT P6SM SKC=